createdAt,value
2018-06-01T00:00:43.173Z,0
2018-06-01T00:01:43.057Z,0
2018-06-01T00:02:43.078Z,0
2018-06-01T00:03:43.124Z,0
2018-06-01T00:04:43.371Z,0
2018-06-01T00:05:43.396Z,0
2018-06-01T00:06:43.422Z,0
2018-06-01T00:07:43.442Z,0
2018-06-01T00:08:43.469Z,0
2018-06-01T00:09:43.260Z,0
2018-06-01T00:10:43.518Z,0
2018-06-01T00:11:43.339Z,0
2018-06-01T00:12:43.562Z,0
2018-06-01T00:13:43.340Z,0
2018-06-01T00:14:43.614Z,0
2018-06-01T00:15:43.642Z,0
2018-06-01T00:16:43.692Z,0
2018-06-01T00:17:43.706Z,0
2018-06-01T00:18:43.735Z,0
2018-06-01T00:19:43.504Z,0
2018-06-01T00:20:43.526Z,0
2018-06-01T00:21:43.548Z,0
2018-06-01T00:22:43.318Z,0
2018-06-01T00:23:43.343Z,0
2018-06-01T00:24:43.880Z,0
2018-06-01T00:25:43.895Z,0
2018-06-01T00:26:43.976Z,0
2018-06-01T00:27:43.698Z,0
2018-06-01T00:28:43.972Z,0
2018-06-01T00:29:43.993Z,0
2018-06-01T00:30:43.768Z,0
2018-06-01T00:31:44.046Z,0
2018-06-01T00:32:44.073Z,0
2018-06-01T00:33:43.845Z,0
2018-06-01T00:34:44.129Z,0
2018-06-01T00:35:44.147Z,0
2018-06-01T00:36:44.187Z,0
2018-06-01T00:37:44.204Z,0
2018-06-01T00:38:43.712Z,0
2018-06-01T00:39:44.001Z,0
2018-06-01T00:40:43.765Z,0
2018-06-01T00:41:43.841Z,0
2018-06-01T00:42:44.340Z,0
2018-06-01T00:43:43.843Z,0
2018-06-01T00:44:44.117Z,0
2018-06-01T00:45:44.138Z,0
2018-06-01T00:46:44.424Z,0
2018-06-01T00:47:44.195Z,0
2018-06-01T00:48:44.497Z,0
2018-06-01T00:49:44.233Z,0
2018-06-01T00:50:44.518Z,0
2018-06-01T00:51:44.547Z,0
2018-06-01T00:52:44.558Z,0
2018-06-01T00:53:44.604Z,0
2018-06-01T00:54:44.099Z,0
2018-06-01T00:55:44.636Z,0
2018-06-01T00:56:44.457Z,0
2018-06-01T00:57:44.683Z,0
2018-06-01T00:58:44.725Z,0
2018-06-01T00:59:44.738Z,0
2018-06-01T01:00:44.755Z,0
2018-06-01T01:01:44.528Z,0
2018-06-01T01:02:44.784Z,0
2018-06-01T01:03:44.330Z,0
2018-06-01T01:04:44.586Z,0
2018-06-01T01:05:44.351Z,0
2018-06-01T01:06:44.682Z,0
2018-06-01T01:07:44.402Z,0
2018-06-01T01:08:44.680Z,0
2018-06-01T01:09:44.963Z,0
2018-06-01T01:10:44.999Z,0
2018-06-01T01:11:44.820Z,0
2018-06-01T01:12:44.782Z,0
2018-06-01T01:13:45.060Z,0
2018-06-01T01:14:45.085Z,0
2018-06-01T01:15:44.849Z,0
2018-06-01T01:16:44.924Z,0
2018-06-01T01:17:45.146Z,0
2018-06-01T01:18:44.917Z,0
2018-06-01T01:19:44.941Z,0
2018-06-01T01:20:44.971Z,0
2018-06-01T01:21:44.993Z,0
2018-06-01T01:22:45.291Z,0
2018-06-01T01:23:45.309Z,0
2018-06-01T01:24:45.335Z,0
2018-06-01T01:25:45.123Z,0
2018-06-01T01:26:45.434Z,0
2018-06-01T01:27:45.427Z,0
2018-06-01T01:28:45.223Z,0
2018-06-01T01:29:45.452Z,0
2018-06-01T01:30:44.979Z,0
2018-06-01T01:31:45.506Z,0
2018-06-01T01:32:45.535Z,0
2018-06-01T01:33:45.298Z,0
2018-06-01T01:34:45.578Z,0
2018-06-01T01:35:45.597Z,0
2018-06-01T01:36:45.624Z,0
2018-06-01T01:37:45.691Z,0
2018-06-01T01:38:45.714Z,0
2018-06-01T01:39:45.697Z,0
2018-06-01T01:40:45.716Z,0
2018-06-01T01:41:45.556Z,0
2018-06-01T01:42:45.775Z,0
2018-06-01T01:43:45.530Z,0
2018-06-01T01:44:45.813Z,0
2018-06-01T01:45:45.783Z,0
2018-06-01T01:46:45.877Z,0
2018-06-01T01:47:45.623Z,0
2018-06-01T01:48:45.901Z,0
2018-06-01T01:49:45.427Z,0
2018-06-01T01:50:45.704Z,0
2018-06-01T01:51:45.727Z,0
2018-06-01T01:52:45.745Z,0
2018-06-01T01:53:46.060Z,0
2018-06-01T01:54:45.281Z,0
2018-06-01T01:55:45.809Z,0
2018-06-01T01:56:45.892Z,0
2018-06-01T01:57:45.871Z,0
2018-06-01T01:58:46.159Z,0
2018-06-01T01:59:46.177Z,0
2018-06-01T02:00:46.202Z,0
2018-06-01T02:01:46.216Z,0
2018-06-01T02:02:46.248Z,0
2018-06-01T02:03:46.257Z,0
2018-06-01T02:04:46.279Z,0
2018-06-01T02:05:45.917Z,0
2018-06-01T02:06:46.085Z,0
2018-06-01T02:07:46.362Z,0
2018-06-01T02:08:46.390Z,0
2018-06-01T02:09:46.407Z,0
2018-06-01T02:10:46.438Z,0
2018-06-01T02:11:46.268Z,0
2018-06-01T02:12:46.475Z,0
2018-06-01T02:13:46.513Z,0
2018-06-01T02:14:46.268Z,0
2018-06-01T02:15:46.295Z,0
2018-06-01T02:16:46.316Z,0
2018-06-01T02:17:46.092Z,0
2018-06-01T02:18:46.367Z,0
2018-06-01T02:19:46.641Z,0
2018-06-01T02:20:46.155Z,0
2018-06-01T02:21:46.463Z,0
2018-06-01T02:22:46.715Z,0
2018-06-01T02:23:46.792Z,0
2018-06-01T02:24:46.495Z,0
2018-06-01T02:25:46.522Z,0
2018-06-01T02:26:46.842Z,0
2018-06-01T02:27:46.816Z,0
2018-06-01T02:28:46.843Z,0
2018-06-01T02:29:46.614Z,0
2018-06-01T02:30:46.891Z,0
2018-06-01T02:31:46.690Z,0
2018-06-01T02:32:46.945Z,0
2018-06-01T02:33:46.958Z,0
2018-06-01T02:34:46.990Z,0
2018-06-01T02:35:46.505Z,0
2018-06-01T02:36:47.035Z,0
2018-06-01T02:37:46.803Z,4
2018-06-01T02:38:47.087Z,4
2018-06-01T02:39:47.121Z,4
2018-06-01T02:40:46.885Z,4
2018-06-01T02:41:47.345Z,4
2018-06-01T02:42:46.687Z,4
2018-06-01T02:43:46.951Z,4
2018-06-01T02:44:46.983Z,4
2018-06-01T02:45:47.036Z,4
2018-06-01T02:46:47.297Z,4
2018-06-01T02:47:47.060Z,4
2018-06-01T02:48:47.330Z,4
2018-06-01T02:49:47.106Z,4
2018-06-01T02:50:47.373Z,4
2018-06-01T02:51:47.511Z,8
2018-06-01T02:52:47.185Z,4
2018-06-01T02:53:47.457Z,8
2018-06-01T02:54:47.477Z,8
2018-06-01T02:55:47.494Z,8
2018-06-01T02:56:47.577Z,12
2018-06-01T02:57:47.310Z,12
2018-06-01T02:58:47.565Z,12
2018-06-01T02:59:47.626Z,12
2018-06-01T03:00:47.616Z,20
2018-06-01T03:01:47.633Z,16
2018-06-01T03:02:47.641Z,20
2018-06-01T03:03:47.664Z,24
2018-06-01T03:04:47.689Z,28
2018-06-01T03:05:47.712Z,32
2018-06-01T03:06:46.973Z,36
2018-06-01T03:07:47.758Z,36
2018-06-01T03:08:47.795Z,44
2018-06-01T03:09:47.804Z,48
2018-06-01T03:10:47.827Z,52
2018-06-01T03:11:47.911Z,56
2018-06-01T03:12:47.889Z,64
2018-06-01T03:13:47.910Z,68
2018-06-01T03:14:47.686Z,76
2018-06-01T03:15:47.720Z,84
2018-06-01T03:16:47.987Z,92
2018-06-01T03:17:48.004Z,100
2018-06-01T03:18:48.023Z,112
2018-06-01T03:19:47.545Z,120
2018-06-01T03:20:47.819Z,132
2018-06-01T03:21:48.102Z,144
2018-06-01T03:22:48.111Z,160
2018-06-01T03:23:48.139Z,172
2018-06-01T03:24:47.908Z,180
2018-06-01T03:25:48.185Z,192
2018-06-01T03:26:47.750Z,208
2018-06-01T03:27:47.985Z,212
2018-06-01T03:28:48.252Z,224
2018-06-01T03:29:48.283Z,232
2018-06-01T03:30:48.303Z,244
2018-06-01T03:31:48.017Z,256
2018-06-01T03:32:48.090Z,264
2018-06-01T03:33:48.116Z,272
2018-06-01T03:34:48.138Z,280
2018-06-01T03:35:47.906Z,288
2018-06-01T03:36:48.449Z,296
2018-06-01T03:37:48.458Z,300
2018-06-01T03:38:48.484Z,304
2018-06-01T03:39:47.997Z,308
2018-06-01T03:40:48.276Z,312
2018-06-01T03:41:48.357Z,320
2018-06-01T03:42:48.593Z,328
2018-06-01T03:43:48.621Z,332
2018-06-01T03:44:48.640Z,340
2018-06-01T03:45:48.402Z,352
2018-06-01T03:46:48.688Z,356
2018-06-01T03:47:48.710Z,364
2018-06-01T03:48:48.217Z,368
2018-06-01T03:49:48.752Z,380
2018-06-01T03:50:48.758Z,396
2018-06-01T03:51:48.779Z,412
2018-06-01T03:52:48.551Z,436
2018-06-01T03:53:48.848Z,464
2018-06-01T03:54:48.362Z,496
2018-06-01T03:55:48.633Z,528
2018-06-01T03:56:48.959Z,568
2018-06-01T03:57:48.680Z,612
2018-06-01T03:58:48.957Z,660
2018-06-01T03:59:48.467Z,708
2018-06-01T04:00:49.004Z,760
2018-06-01T04:01:49.028Z,812
2018-06-01T04:02:48.843Z,868
2018-06-01T04:03:48.818Z,924
2018-06-01T04:04:49.098Z,988
2018-06-01T04:05:48.359Z,1048
2018-06-01T04:06:49.155Z,1104
2018-06-01T04:07:49.172Z,1144
2018-06-01T04:08:48.938Z,1172
2018-06-01T04:09:48.961Z,1192
2018-06-01T04:10:49.233Z,1212
2018-06-01T04:11:49.312Z,1232
2018-06-01T04:12:49.281Z,1252
2018-06-01T04:13:48.540Z,1276
2018-06-01T04:14:49.081Z,1304
2018-06-01T04:15:49.358Z,1324
2018-06-01T04:16:50.123Z,1344
2018-06-01T04:17:49.144Z,1364
2018-06-01T04:18:49.420Z,1384
2018-06-01T04:19:49.453Z,1404
2018-06-01T04:20:49.468Z,1432
2018-06-01T04:21:49.251Z,1468
2018-06-01T04:22:49.250Z,1512
2018-06-01T04:23:49.022Z,1564
2018-06-01T04:24:49.571Z,1620
2018-06-01T04:25:49.331Z,1680
2018-06-01T04:26:49.667Z,1744
2018-06-01T04:27:49.857Z,1808
2018-06-01T04:28:49.676Z,1876
2018-06-01T04:29:49.675Z,1940
2018-06-01T04:30:49.448Z,2000
2018-06-01T04:31:49.737Z,2048
2018-06-01T04:32:49.760Z,2084
2018-06-01T04:33:49.516Z,2144
2018-06-01T04:34:49.798Z,2148
2018-06-01T04:35:49.815Z,2148
2018-06-01T04:36:49.843Z,2176
2018-06-01T04:37:49.618Z,2200
2018-06-01T04:38:49.890Z,2216
2018-06-01T04:39:49.909Z,2224
2018-06-01T04:40:49.977Z,2220
2018-06-01T04:41:49.740Z,2200
2018-06-01T04:42:49.967Z,2180
2018-06-01T04:43:49.739Z,2168
2018-06-01T04:44:50.020Z,2164
2018-06-01T04:45:50.038Z,2156
2018-06-01T04:46:50.086Z,2148
2018-06-01T04:47:50.088Z,2132
2018-06-01T04:48:50.105Z,2112
2018-06-01T04:49:50.133Z,2088
2018-06-01T04:50:50.156Z,2064
2018-06-01T04:51:50.184Z,2040
2018-06-01T04:52:50.214Z,2012
2018-06-01T04:53:50.239Z,1980
2018-06-01T04:54:50.280Z,1952
2018-06-01T04:55:50.287Z,1928
2018-06-01T04:56:50.372Z,1904
2018-06-01T04:57:50.335Z,1900
2018-06-01T04:58:49.850Z,1900
2018-06-01T04:59:50.397Z,1904
2018-06-01T05:00:50.141Z,1904
2018-06-01T05:01:50.419Z,1908
2018-06-01T05:02:50.183Z,1908
2018-06-01T05:03:50.466Z,1908
2018-06-01T05:04:50.256Z,1908
2018-06-01T05:05:50.266Z,1904
2018-06-01T05:06:50.293Z,1904
2018-06-01T05:07:50.572Z,1896
2018-06-01T05:08:50.085Z,1876
2018-06-01T05:09:50.676Z,1836
2018-06-01T05:10:50.644Z,1800
2018-06-01T05:11:50.696Z,1780
2018-06-01T05:12:50.419Z,1764
2018-06-01T05:13:50.188Z,1756
2018-06-01T05:14:50.734Z,1764
2018-06-01T05:15:49.999Z,1784
2018-06-01T05:16:50.884Z,1816
2018-06-01T05:17:50.803Z,1856
2018-06-01T05:18:50.832Z,1900
2018-06-01T05:19:50.852Z,1952
2018-06-01T05:20:50.888Z,2016
2018-06-01T05:21:50.904Z,2068
2018-06-01T05:22:50.674Z,2112
2018-06-01T05:23:50.698Z,2144
2018-06-01T05:24:50.972Z,2160
2018-06-01T05:25:50.998Z,2156
2018-06-01T05:26:50.815Z,2136
2018-06-01T05:27:51.047Z,2108
2018-06-01T05:28:50.561Z,2092
2018-06-01T05:29:50.836Z,2084
2018-06-01T05:30:50.862Z,2088
2018-06-01T05:31:50.934Z,2088
2018-06-01T05:32:51.161Z,2108
2018-06-01T05:33:51.189Z,2144
2018-06-01T05:34:51.211Z,2196
2018-06-01T05:35:51.239Z,2280
2018-06-01T05:36:51.258Z,2376
2018-06-01T05:37:51.277Z,2484
2018-06-01T05:38:51.316Z,2592
2018-06-01T05:39:51.326Z,2680
2018-06-01T05:40:51.097Z,2724
2018-06-01T05:41:51.424Z,2736
2018-06-01T05:42:50.875Z,2732
2018-06-01T05:43:51.407Z,2732
2018-06-01T05:44:51.433Z,2716
2018-06-01T05:45:51.456Z,2688
2018-06-01T05:46:51.231Z,2656
2018-06-01T05:47:51.494Z,2620
2018-06-01T05:48:51.527Z,2580
2018-06-01T05:49:51.314Z,2552
2018-06-01T05:50:51.592Z,2524
2018-06-01T05:51:51.689Z,2488
2018-06-01T05:52:51.103Z,2472
2018-06-01T05:53:51.633Z,2472
2018-06-01T05:54:51.398Z,2468
2018-06-01T05:55:51.172Z,2456
2018-06-01T05:56:51.496Z,2396
2018-06-01T05:57:51.514Z,2284
2018-06-01T05:58:51.749Z,2160
2018-06-01T05:59:51.269Z,2044
2018-06-01T06:00:51.540Z,1928
2018-06-01T06:01:51.594Z,1820
2018-06-01T06:02:51.870Z,1724
2018-06-01T06:03:51.639Z,1656
2018-06-01T06:04:51.676Z,1608
2018-06-01T06:05:51.944Z,1564
2018-06-01T06:06:52.064Z,1532
2018-06-01T06:07:51.493Z,1508
2018-06-01T06:08:51.761Z,1488
2018-06-01T06:09:51.780Z,1488
2018-06-01T06:10:51.550Z,1496
2018-06-01T06:11:52.114Z,1512
2018-06-01T06:12:52.085Z,1528
2018-06-01T06:13:52.113Z,1552
2018-06-01T06:14:51.924Z,1576
2018-06-01T06:15:52.230Z,1604
2018-06-01T06:16:51.994Z,1628
2018-06-01T06:17:52.181Z,1664
2018-06-01T06:18:52.258Z,1704
2018-06-01T06:19:52.133Z,1764
2018-06-01T06:20:52.044Z,1828
2018-06-01T06:21:52.075Z,1908
2018-06-01T06:22:52.085Z,2004
2018-06-01T06:23:51.853Z,2108
2018-06-01T06:24:52.396Z,2232
2018-06-01T06:25:52.299Z,2356
2018-06-01T06:26:51.978Z,2492
2018-06-01T06:27:52.201Z,2656
2018-06-01T06:28:52.480Z,2828
2018-06-01T06:29:52.246Z,3008
2018-06-01T06:30:52.538Z,3160
2018-06-01T06:31:52.550Z,3312
2018-06-01T06:32:52.322Z,3468
2018-06-01T06:33:52.584Z,3612
2018-06-01T06:34:52.353Z,3720
2018-06-01T06:35:52.392Z,3788
2018-06-01T06:36:52.151Z,3828
2018-06-01T06:37:52.892Z,3836
2018-06-01T06:38:52.472Z,3804
2018-06-01T06:39:52.725Z,3800
2018-06-01T06:40:52.494Z,3804
2018-06-01T06:41:52.566Z,3844
2018-06-01T06:42:52.793Z,3896
2018-06-01T06:43:52.821Z,3948
2018-06-01T06:44:52.590Z,4004
2018-06-01T06:45:52.634Z,4068
2018-06-01T06:46:52.377Z,4140
2018-06-01T06:47:52.913Z,4228
2018-06-01T06:48:52.948Z,4328
2018-06-01T06:49:52.448Z,4440
2018-06-01T06:50:52.488Z,4552
2018-06-01T06:51:53.053Z,4684
2018-06-01T06:52:53.022Z,4832
2018-06-01T06:53:52.786Z,4976
2018-06-01T06:54:52.551Z,5128
2018-06-01T06:55:53.097Z,5276
2018-06-01T06:56:52.904Z,5404
2018-06-01T06:57:52.645Z,5528
2018-06-01T06:58:52.650Z,5664
2018-06-01T06:59:52.925Z,5812
2018-06-01T07:00:52.945Z,5952
2018-06-01T07:01:52.978Z,6096
2018-06-01T07:02:52.756Z,6268
2018-06-01T07:03:53.017Z,6452
2018-06-01T07:04:53.300Z,6640
2018-06-01T07:05:53.070Z,6844
2018-06-01T07:06:53.361Z,7048
2018-06-01T07:07:53.363Z,7220
2018-06-01T07:08:53.132Z,7364
2018-06-01T07:09:53.416Z,7508
2018-06-01T07:10:53.190Z,7572
2018-06-01T07:11:53.272Z,7676
2018-06-01T07:12:53.234Z,7784
2018-06-01T07:13:53.273Z,7916
2018-06-01T07:14:53.038Z,8048
2018-06-01T07:15:53.311Z,8068
2018-06-01T07:16:53.405Z,8028
2018-06-01T07:17:53.386Z,8064
2018-06-01T07:18:53.393Z,8164
2018-06-01T07:19:53.665Z,8664
2018-06-01T07:20:53.691Z,8444
2018-06-01T07:21:53.733Z,8424
2018-06-01T07:22:53.491Z,9060
2018-06-01T07:23:53.509Z,7932
2018-06-01T07:24:53.797Z,8556
2018-06-01T07:25:53.309Z,9336
2018-06-01T07:26:53.326Z,8728
2018-06-01T07:27:53.352Z,7336
2018-06-01T07:28:53.889Z,8392
2018-06-01T07:29:53.656Z,8016
2018-06-01T07:30:53.688Z,5432
2018-06-01T07:31:53.708Z,5184
2018-06-01T07:32:53.731Z,4840
2018-06-01T07:33:54.016Z,4816
2018-06-01T07:34:54.044Z,7464
2018-06-01T07:35:54.068Z,7328
2018-06-01T07:36:53.826Z,7196
2018-06-01T07:37:54.131Z,7084
2018-06-01T07:38:53.723Z,7108
2018-06-01T07:39:53.904Z,7016
2018-06-01T07:40:54.193Z,6912
2018-06-01T07:41:54.209Z,6960
2018-06-01T07:42:53.973Z,6948
2018-06-01T07:43:54.259Z,6936
2018-06-01T07:44:54.038Z,6976
2018-06-01T07:45:54.050Z,7036
2018-06-01T07:46:54.261Z,7060
2018-06-01T07:47:54.349Z,7140
2018-06-01T07:48:54.372Z,7112
2018-06-01T07:49:54.151Z,7192
2018-06-01T07:50:54.435Z,7200
2018-06-01T07:51:54.447Z,7332
2018-06-01T07:52:54.480Z,6968
2018-06-01T07:53:54.265Z,7588
2018-06-01T07:54:54.534Z,7600
2018-06-01T07:55:54.299Z,7612
2018-06-01T07:56:54.597Z,7728
2018-06-01T07:57:54.350Z,5248
2018-06-01T07:58:54.386Z,5068
2018-06-01T07:59:54.413Z,7952
2018-06-01T08:00:54.724Z,7932
2018-06-01T08:01:54.452Z,8148
2018-06-01T08:02:54.537Z,8452
2018-06-01T08:03:54.503Z,8916
2018-06-01T08:04:54.787Z,9532
2018-06-01T08:05:54.818Z,10060
2018-06-01T08:06:54.585Z,10100
2018-06-01T08:07:54.905Z,6980
2018-06-01T08:08:54.888Z,9864
2018-06-01T08:09:54.914Z,11064
2018-06-01T08:10:54.950Z,11888
2018-06-01T08:11:54.732Z,12636
2018-06-01T08:12:54.985Z,12900
2018-06-01T08:13:54.753Z,10652
2018-06-01T08:14:54.821Z,11640
2018-06-01T08:15:55.064Z,11248
2018-06-01T08:16:54.834Z,11232
2018-06-01T08:17:54.860Z,11152
2018-06-01T08:18:55.135Z,12124
2018-06-01T08:19:54.915Z,11616
2018-06-01T08:20:55.192Z,11292
2018-06-01T08:21:54.963Z,11636
2018-06-01T08:22:55.030Z,12272
2018-06-01T08:23:55.002Z,16480
2018-06-01T08:24:55.276Z,12516
2018-06-01T08:25:55.054Z,11588
2018-06-01T08:26:55.371Z,11772
2018-06-01T08:27:55.375Z,11944
2018-06-01T08:28:55.145Z,12312
2018-06-01T08:29:55.172Z,11680
2018-06-01T08:30:55.453Z,11028
2018-06-01T08:31:55.233Z,10160
2018-06-01T08:32:55.539Z,9420
2018-06-01T08:33:55.525Z,8820
2018-06-01T08:34:55.289Z,8800
2018-06-01T08:35:55.318Z,9504
2018-06-01T08:36:55.091Z,12548
2018-06-01T08:37:55.682Z,15180
2018-06-01T08:38:55.407Z,12228
2018-06-01T08:39:55.679Z,15344
2018-06-01T08:40:55.745Z,14944
2018-06-01T08:41:55.757Z,15412
2018-06-01T08:42:55.259Z,17792
2018-06-01T08:43:55.809Z,16192
2018-06-01T08:44:55.317Z,12292
2018-06-01T08:45:55.599Z,10204
2018-06-01T08:46:55.622Z,9048
2018-06-01T08:47:55.704Z,8336
2018-06-01T08:48:55.680Z,9252
2018-06-01T08:49:55.976Z,9948
2018-06-01T08:50:55.477Z,12008
2018-06-01T08:51:55.761Z,11820
2018-06-01T08:52:55.835Z,11988
2018-06-01T08:53:55.814Z,12668
2018-06-01T08:54:55.846Z,13608
2018-06-01T08:55:55.873Z,14244
2018-06-01T08:56:55.902Z,14908
2018-06-01T08:57:55.975Z,15156
2018-06-01T08:58:56.463Z,16640
2018-06-01T08:59:55.723Z,16960
2018-06-01T09:00:56.267Z,15968
2018-06-01T09:01:56.035Z,14208
2018-06-01T09:02:56.080Z,11968
2018-06-01T09:03:56.094Z,8928
2018-06-01T09:04:56.373Z,7588
2018-06-01T09:05:56.405Z,6952
2018-06-01T09:06:56.431Z,6584
2018-06-01T09:07:55.745Z,6184
2018-06-01T09:08:56.240Z,6368
2018-06-01T09:09:56.512Z,7048
2018-06-01T09:10:56.547Z,7860
2018-06-01T09:11:56.567Z,9088
2018-06-01T09:12:56.601Z,10004
2018-06-01T09:13:56.368Z,10424
2018-06-01T09:14:56.395Z,10460
2018-06-01T09:15:56.427Z,10688
2018-06-01T09:16:56.819Z,11008
2018-06-01T09:17:56.477Z,11552
2018-06-01T09:18:56.510Z,12248
2018-06-01T09:19:56.798Z,12852
2018-06-01T09:20:56.817Z,12852
2018-06-01T09:21:56.595Z,12788
2018-06-01T09:22:56.922Z,13204
2018-06-01T09:23:56.646Z,14100
2018-06-01T09:24:56.681Z,14460
2018-06-01T09:25:56.948Z,15772
2018-06-01T09:26:56.989Z,16288
2018-06-01T09:27:56.753Z,16544
2018-06-01T09:28:57.027Z,14284
2018-06-01T09:29:56.810Z,13876
2018-06-01T09:30:56.835Z,14128
2018-06-01T09:31:56.859Z,12844
2018-06-01T09:32:56.891Z,14600
2018-06-01T09:33:56.678Z,13128
2018-06-01T09:34:57.209Z,12688
2018-06-01T09:35:57.238Z,12592
2018-06-01T09:36:57.009Z,12468
2018-06-01T09:37:57.097Z,12620
2018-06-01T09:38:57.323Z,13332
2018-06-01T09:39:57.372Z,12932
2018-06-01T09:40:57.379Z,12824
2018-06-01T09:41:57.156Z,13468
2018-06-01T09:42:56.963Z,14452
2018-06-01T09:43:57.437Z,15604
2018-06-01T09:44:57.480Z,16832
2018-06-01T09:45:57.240Z,18400
2018-06-01T09:46:57.553Z,18144
2018-06-01T09:47:57.421Z,17984
2018-06-01T09:48:57.609Z,18400
2018-06-01T09:49:57.637Z,16768
2018-06-01T09:50:57.683Z,16704
2018-06-01T09:51:56.928Z,16704
2018-06-01T09:52:57.247Z,21088
2018-06-01T09:53:57.480Z,15612
2018-06-01T09:54:57.275Z,14864
2018-06-01T09:55:57.794Z,14048
2018-06-01T09:56:57.820Z,13076
2018-06-01T09:57:57.646Z,12196
2018-06-01T09:58:57.618Z,11428
2018-06-01T09:59:57.896Z,10832
2018-06-01T10:00:57.693Z,10740
2018-06-01T10:01:57.457Z,10836
2018-06-01T10:02:58.001Z,10900
2018-06-01T10:03:58.040Z,10928
2018-06-01T10:04:57.815Z,11080
2018-06-01T10:05:58.091Z,11264
2018-06-01T10:06:58.138Z,11500
2018-06-01T10:07:57.900Z,11536
2018-06-01T10:08:57.924Z,11736
2018-06-01T10:09:58.222Z,13384
2018-06-01T10:10:58.235Z,14472
2018-06-01T10:11:58.273Z,11084
2018-06-01T10:12:58.089Z,11360
2018-06-01T10:13:58.319Z,18464
2018-06-01T10:14:58.367Z,19008
2018-06-01T10:15:58.128Z,19392
2018-06-01T10:16:58.147Z,19808
2018-06-01T10:17:58.432Z,20320
2018-06-01T10:18:58.463Z,20960
2018-06-01T10:19:58.496Z,21568
2018-06-01T10:20:58.268Z,22144
2018-06-01T10:21:58.557Z,22656
2018-06-01T10:22:58.630Z,23296
2018-06-01T10:23:58.609Z,23968
2018-06-01T10:24:58.646Z,23424
2018-06-01T10:25:58.163Z,20928
2018-06-01T10:26:58.718Z,18272
2018-06-01T10:27:58.482Z,18720
2018-06-01T10:28:58.513Z,20672
2018-06-01T10:29:58.543Z,20544
2018-06-01T10:30:58.336Z,23872
2018-06-01T10:31:58.343Z,18848
2018-06-01T10:32:59.072Z,21952
2018-06-01T10:33:58.752Z,17056
2018-06-01T10:34:58.955Z,16384
2018-06-01T10:35:58.981Z,16352
2018-06-01T10:36:59.014Z,16672
2018-06-01T10:37:58.591Z,17024
2018-06-01T10:38:58.819Z,17120
2018-06-01T10:39:58.602Z,16864
2018-06-01T10:40:59.141Z,16260
2018-06-01T10:41:59.165Z,15860
2018-06-01T10:42:59.239Z,15332
2018-06-01T10:43:59.231Z,14916
2018-06-01T10:44:59.273Z,14640
2018-06-01T10:45:59.040Z,14768
2018-06-01T10:46:59.336Z,15068
2018-06-01T10:47:59.390Z,15640
2018-06-01T10:48:59.382Z,19264
2018-06-01T10:49:59.164Z,20032
2018-06-01T10:50:59.491Z,18304
2018-06-01T10:51:59.215Z,20896
2018-06-01T10:52:59.309Z,19488
2018-06-01T10:53:59.019Z,19072
2018-06-01T10:54:59.556Z,24064
2018-06-01T10:55:59.590Z,22752
2018-06-01T10:56:59.364Z,19968
2018-06-01T10:57:59.651Z,20832
2018-06-01T10:58:59.676Z,24608
2018-06-01T10:59:59.468Z,23264
2018-06-01T11:00:59.742Z,25152
2018-06-01T11:01:59.780Z,25920
2018-06-01T11:02:59.553Z,24160
2018-06-01T11:03:59.840Z,26208
2018-06-01T11:04:59.874Z,21888
2018-06-01T11:05:59.900Z,22464
2018-06-01T11:06:59.931Z,20768
2018-06-01T11:07:59.761Z,19168
2018-06-01T11:08:59.484Z,17792
2018-06-01T11:09:59.774Z,16928
2018-06-01T11:11:00.058Z,16060
2018-06-01T11:12:00.107Z,15512
2018-06-01T11:12:59.875Z,15644
2018-06-01T11:14:00.151Z,15356
2018-06-01T11:15:00.187Z,18432
2018-06-01T11:15:59.712Z,14584
2018-06-01T11:17:00.275Z,14408
2018-06-01T11:18:00.309Z,13880
2018-06-01T11:19:00.061Z,13528
2018-06-01T11:20:00.344Z,13616
2018-06-01T11:21:00.129Z,13752
2018-06-01T11:22:00.412Z,13928
2018-06-01T11:23:00.240Z,14316
2018-06-01T11:24:00.220Z,14992
2018-06-01T11:25:00.503Z,15964
2018-06-01T11:26:00.287Z,17440
2018-06-01T11:27:00.438Z,18496
2018-06-01T11:28:00.609Z,23936
2018-06-01T11:29:00.378Z,20544
2018-06-01T11:30:00.407Z,23808
2018-06-01T11:31:00.186Z,20800
2018-06-01T11:32:00.197Z,32960
2018-06-01T11:33:00.842Z,34432
2018-06-01T11:34:00.511Z,33824
2018-06-01T11:35:00.543Z,35008
2018-06-01T11:36:00.322Z,36864
2018-06-01T11:37:00.864Z,38624
2018-06-01T11:38:00.701Z,38976
2018-06-01T11:39:00.428Z,40064
2018-06-01T11:40:00.714Z,42400
2018-06-01T11:41:00.744Z,43296
2018-06-01T11:42:00.773Z,43104
2018-06-01T11:43:00.826Z,39104
2018-06-01T11:44:01.091Z,33696
2018-06-01T11:45:00.871Z,34272
2018-06-01T11:46:00.927Z,15340
2018-06-01T11:47:01.184Z,41216
2018-06-01T11:48:01.275Z,41920
2018-06-01T11:49:01.006Z,41088
2018-06-01T11:50:01.294Z,40576
2018-06-01T11:51:01.323Z,41440
2018-06-01T11:52:01.107Z,44192
2018-06-01T11:53:01.437Z,14496
2018-06-01T11:54:01.422Z,14824
2018-06-01T11:55:01.463Z,15224
2018-06-01T11:56:01.339Z,14436
2018-06-01T11:57:01.530Z,14740
2018-06-01T11:58:01.662Z,15764
2018-06-01T11:59:01.593Z,47008
2018-06-01T12:00:01.624Z,16188
2018-06-01T12:01:01.650Z,22720
2018-06-01T12:02:01.685Z,45056
2018-06-01T12:03:01.723Z,15944
2018-06-01T12:04:01.770Z,16536
2018-06-01T12:05:01.533Z,17472
2018-06-01T12:06:01.815Z,16044
2018-06-01T12:07:01.592Z,15288
2018-06-01T12:08:01.938Z,15384
2018-06-01T12:09:02.123Z,16460
2018-06-01T12:10:01.949Z,19168
2018-06-01T12:11:02.019Z,22048
2018-06-01T12:12:01.776Z,54656
2018-06-01T12:13:01.792Z,53408
2018-06-01T12:14:02.083Z,53344
2018-06-01T12:15:01.860Z,56160
2018-06-01T12:16:02.172Z,57312
2018-06-01T12:17:02.193Z,57952
2018-06-01T12:18:01.438Z,57088
2018-06-01T12:19:01.980Z,56000
2018-06-01T12:20:02.014Z,27840
2018-06-01T12:21:02.285Z,55072
2018-06-01T12:22:02.316Z,55680
2018-06-01T12:23:02.156Z,55872
2018-06-01T12:24:02.388Z,18080
2018-06-01T12:25:02.417Z,14628
2018-06-01T12:26:01.940Z,13648
2018-06-01T12:27:02.487Z,13920
2018-06-01T12:28:02.268Z,14772
2018-06-01T12:29:02.295Z,15828
2018-06-01T12:30:01.833Z,19392
2018-06-01T12:31:02.368Z,25728
2018-06-01T12:32:02.669Z,24064
2018-06-01T12:33:02.449Z,15300
2018-06-01T12:34:02.487Z,14016
2018-06-01T12:35:02.510Z,13520
2018-06-01T12:36:02.793Z,14828
2018-06-01T12:37:02.321Z,12888
2018-06-01T12:38:02.667Z,12940
2018-06-01T12:39:02.643Z,13344
2018-06-01T12:40:02.916Z,13844
2018-06-01T12:41:02.702Z,15528
2018-06-01T12:42:02.731Z,16744
2018-06-01T12:43:03.034Z,19232
2018-06-01T12:44:02.791Z,41024
2018-06-01T12:45:02.315Z,62816
2018-06-01T12:46:02.610Z,63520
2018-06-01T12:47:02.893Z,61152
2018-06-01T12:48:03.184Z,45184
2018-06-01T12:49:02.954Z,62560
2018-06-01T12:50:03.239Z,62848
2018-06-01T12:51:03.020Z,61376
2018-06-01T12:52:03.051Z,58976
2018-06-01T12:53:03.130Z,59008
2018-06-01T12:54:03.482Z,58656
2018-06-01T12:55:03.398Z,56480
2018-06-01T12:56:03.178Z,56928
2018-06-01T12:57:03.466Z,58688
2018-06-01T12:58:03.251Z,59392
2018-06-01T12:59:03.282Z,59232
2018-06-01T13:00:03.326Z,59360
2018-06-01T13:01:03.358Z,59456
2018-06-01T13:02:03.395Z,58752
2018-06-01T13:03:03.689Z,56736
2018-06-01T13:04:03.212Z,54432
2018-06-01T13:05:03.752Z,55552
2018-06-01T13:06:03.791Z,54624
2018-06-01T13:07:03.565Z,55232
2018-06-01T13:08:03.648Z,53888
2018-06-01T13:09:04.097Z,52768
2018-06-01T13:10:03.664Z,52576
2018-06-01T13:11:03.690Z,54848
2018-06-01T13:12:03.724Z,15144
2018-06-01T13:13:04.010Z,15084
2018-06-01T13:14:03.798Z,16532
2018-06-01T13:15:03.833Z,28032
2018-06-01T13:16:03.615Z,61600
2018-06-01T13:17:03.900Z,60448
2018-06-01T13:18:03.733Z,62944
2018-06-01T13:19:03.977Z,62400
2018-06-01T13:20:04.275Z,62752
2018-06-01T13:21:04.307Z,64800
2018-06-01T13:22:04.339Z,67808
2018-06-01T13:23:03.875Z,68576
2018-06-01T13:24:04.406Z,70496
2018-06-01T13:25:03.933Z,68160
2018-06-01T13:26:04.481Z,67808
2018-06-01T13:27:04.281Z,69568
2018-06-01T13:28:04.558Z,67584
2018-06-01T13:29:04.098Z,16840